Terminal Aerodrome Forecast
Issued by NWS

Home | Current Version | Previous Version | Text Only | Print | Product List | Glossary On
Versions: 1 2 3 4 5 6 7 8 9 10 11 12 13 14 15 16
000
FTUS46 KMTR 201700
TAFSNS
TAF
KSNS 201726Z 2018/2118 12006KT P6SM FEW007 SCT200
     FM202000 29012KT P6SM SCT200
     FM210600 29006KT 5SM BR BKN007
     FM211600 12006KT P6SM FEW010 SCT200=

USA.gov is the U.S. government's official web portal to all federal, state and local government web resources and services.